Time;durP1;ratioP1;P1;durP2;ratioP2;P2;SDS_P1;SDS_P2;PMS_P1;PMS_P2;Temp;Humidity;BMP_temperature;BMP_pressure;BME280_temperature;BME280_humidity;BME280_pressure;Samples;Min_cycle;Max_cycle;Signal;HPM_P1;HPM_P2
2023/09/04 00:00:45;;;;;;;5.33;4.83;;;16.00;99.90;;;;;;6107405;23;20452;-72
2023/09/04 00:03:10;;;;;;;5.73;5.10;;;16.00;99.90;;;;;;6107810;23;20162;-72
2023/09/04 00:05:36;;;;;;;6.40;5.00;;;16.00;99.90;;;;;;6109642;23;20698;-73
2023/09/04 00:08:03;;;;;;;5.40;4.87;;;15.90;99.90;;;;;;6083500;23;20273;-73
2023/09/04 00:10:28;;;;;;;5.20;4.70;;;15.90;99.90;;;;;;6107207;23;20487;-73
2023/09/04 00:12:54;;;;;;;5.13;4.63;;;15.90;99.90;;;;;;6109150;23;20456;-74
2023/09/04 00:15:20;;;;;;;7.30;5.67;;;15.90;99.90;;;;;;6083921;23;20451;-72
2023/09/04 00:17:49;;;;;;;6.57;5.87;;;15.90;99.90;;;;;;6109623;23;20172;-73
2023/09/04 00:20:15;;;;;;;6.13;5.63;;;15.90;99.90;;;;;;6105603;23;20173;-72
2023/09/04 00:22:42;;;;;;;6.53;5.40;;;15.90;99.90;;;;;;6104444;23;20627;-72
2023/09/04 00:25:07;;;;;;;6.00;5.40;;;15.90;99.90;;;;;;6105797;23;20408;-73
2023/09/04 00:27:34;;;;;;;6.13;5.63;;;15.90;99.90;;;;;;6118195;23;20145;-76
2023/09/04 00:30:00;;;;;;;5.50;5.00;;;15.90;99.90;;;;;;6095801;23;20220;-72
2023/09/04 00:32:25;;;;;;;6.60;5.87;;;15.80;99.90;;;;;;6103317;23;20361;-71
2023/09/04 00:34:51;;;;;;;6.37;5.27;;;15.80;99.90;;;;;;6111435;23;20523;-72
2023/09/04 00:37:17;;;;;;;6.20;5.23;;;15.80;99.90;;;;;;6090207;23;20156;-72
2023/09/04 00:39:44;;;;;;;6.10;5.50;;;15.70;99.90;;;;;;6114807;23;20137;-73
2023/09/04 00:42:10;;;;;;;5.73;5.13;;;15.70;99.90;;;;;;6113898;23;20392;-73
2023/09/04 00:44:36;;;;;;;6.53;5.77;;;15.60;99.90;;;;;;6115379;23;21070;-72
2023/09/04 00:47:03;;;;;;;5.73;4.90;;;15.60;99.90;;;;;;6105200;23;20129;-73
2023/09/04 00:49:29;;;;;;;5.83;5.23;;;15.50;99.90;;;;;;6079563;23;20376;-72
2023/09/04 00:51:56;;;;;;;5.60;5.10;;;15.50;99.90;;;;;;6103884;23;20373;-73
2023/09/04 00:54:23;;;;;;;9.70;6.20;;;15.50;99.90;;;;;;6058126;23;20407;-72
2023/09/04 00:56:51;;;;;;;6.33;5.73;;;15.40;99.90;;;;;;6103473;23;20365;-72
2023/09/04 00:59:18;;;;;;;6.20;5.60;;;15.40;99.90;;;;;;6079788;23;20369;-72
2023/09/04 01:01:43;;;;;;;6.10;5.00;;;15.40;99.90;;;;;;6077834;23;20826;-72
2023/09/04 01:04:10;;;;;;;6.40;5.80;;;15.40;99.90;;;;;;6103642;23;20435;-72
2023/09/04 01:06:36;;;;;;;5.67;5.17;;;15.30;99.90;;;;;;6106705;23;20193;-72
2023/09/04 01:09:03;;;;;;;9.30;6.07;;;15.30;99.90;;;;;;6104549;23;20369;-71
2023/09/04 01:11:42;;;;;;;6.57;5.70;;;15.20;99.90;;;;;;6079536;23;20189;-73
2023/09/04 01:14:17;;;;;;;5.53;4.90;;;15.20;99.90;;;;;;6104472;23;20388;-73
2023/09/04 01:16:43;;;;;;;9.10;5.30;;;15.20;99.90;;;;;;6106055;23;20629;-72
2023/09/04 01:19:10;;;;;;;6.73;6.07;;;15.20;99.90;;;;;;6106547;23;20388;-72
2023/09/04 01:21:37;;;;;;;7.50;6.50;;;15.20;99.90;;;;;;6081554;23;20395;-72
2023/09/04 01:24:03;;;;;;;9.37;5.90;;;15.20;99.90;;;;;;6106275;23;20368;-73
2023/09/04 01:26:52;;;;;;;10.30;5.73;;;15.20;99.90;;;;;;6105921;23;20397;-71
2023/09/04 01:29:36;;;;;;;6.80;6.20;;;15.20;99.90;;;;;;6104727;23;20373;-72
2023/09/04 01:32:16;;;;;;;6.90;6.20;;;15.20;99.90;;;;;;6106497;23;20800;-72
2023/09/04 01:34:46;;;;;;;6.10;5.50;;;15.10;99.90;;;;;;6057376;23;20388;-72
2023/09/04 01:37:13;;;;;;;9.53;6.30;;;15.10;99.90;;;;;;6110625;23;20367;-71
2023/09/04 01:39:41;;;;;;;5.23;4.73;;;15.10;99.90;;;;;;6107282;23;20432;-72
2023/09/04 01:42:07;;;;;;;7.13;6.27;;;15.10;99.90;;;;;;6080958;23;20444;-72
2023/09/04 01:44:33;;;;;;;7.30;6.50;;;15.00;99.90;;;;;;6081079;23;20420;-72
2023/09/04 01:46:59;;;;;;;5.80;5.30;;;15.00;99.90;;;;;;6085458;23;20145;-72
2023/09/04 01:49:25;;;;;;;6.13;5.53;;;15.00;99.90;;;;;;6081324;23;20156;-71
2023/09/04 01:51:53;;;;;;;5.77;4.80;;;14.90;99.90;;;;;;6108529;23;20420;-72
2023/09/04 01:54:19;;;;;;;7.00;6.07;;;14.90;99.90;;;;;;6107459;23;20184;-71
2023/09/04 01:56:45;;;;;;;6.47;5.83;;;14.90;99.90;;;;;;6081161;23;20396;-71
2023/09/04 01:59:11;;;;;;;6.47;5.80;;;14.90;99.90;;;;;;6080216;23;20583;-71
2023/09/04 02:01:37;;;;;;;6.43;5.83;;;14.90;99.90;;;;;;6080109;23;20856;-71
2023/09/04 02:04:02;;;;;;;16.43;6.47;;;14.80;99.90;;;;;;6106159;23;20181;-73
2023/09/04 02:06:31;;;;;;;7.20;6.50;;;14.80;99.90;;;;;;6104698;23;20412;-72
2023/09/04 02:08:57;;;;;;;6.07;5.57;;;14.80;99.90;;;;;;6079974;23;20148;-72
2023/09/04 02:11:23;;;;;;;6.40;5.80;;;14.70;99.90;;;;;;6106112;23;20396;-72
2023/09/04 02:13:49;;;;;;;6.70;6.10;;;14.70;99.90;;;;;;6104091;23;20365;-72
2023/09/04 02:16:15;;;;;;;6.20;5.60;;;14.70;99.90;;;;;;6078396;23;20447;-71
2023/09/04 02:18:40;;;;;;;6.47;5.63;;;14.70;99.90;;;;;;6109399;23;20368;-71
2023/09/04 02:21:07;;;;;;;7.03;6.33;;;14.70;99.90;;;;;;6107508;23;20202;-72
2023/09/04 02:23:32;;;;;;;6.37;5.60;;;14.70;99.90;;;;;;6104735;23;20132;-72
2023/09/04 02:25:59;;;;;;;7.20;6.17;;;14.60;99.90;;;;;;6104509;23;20431;-72
2023/09/04 02:28:25;;;;;;;6.17;5.40;;;14.60;99.90;;;;;;6104103;23;20376;-72
2023/09/04 02:30:51;;;;;;;5.93;5.33;;;14.60;99.90;;;;;;6104228;23;20263;-71
2023/09/04 02:33:17;;;;;;;6.10;5.50;;;14.60;99.90;;;;;;6103642;23;20380;-71
2023/09/04 02:35:43;;;;;;;6.60;5.93;;;14.50;99.90;;;;;;6103225;23;20224;-71
2023/09/04 02:38:08;;;;;;;6.57;5.97;;;14.50;99.90;;;;;;6104517;23;20196;-72
2023/09/04 02:40:34;;;;;;;7.07;6.40;;;14.50;99.90;;;;;;6104814;23;20167;-73
2023/09/04 02:43:00;;;;;;;6.20;5.60;;;14.50;99.90;;;;;;6106233;23;20515;-72
2023/09/04 02:45:26;;;;;;;8.53;6.60;;;14.50;99.90;;;;;;6081220;23;20571;-72
2023/09/04 02:47:52;;;;;;;7.40;6.63;;;14.60;99.90;;;;;;6081037;23;20525;-72
2023/09/04 02:50:18;;;;;;;6.30;5.50;;;14.60;99.90;;;;;;6106671;23;20420;-72
2023/09/04 02:52:44;;;;;;;6.27;5.50;;;14.60;99.90;;;;;;6105521;23;20495;-71
2023/09/04 02:55:09;;;;;;;6.50;5.90;;;14.60;99.90;;;;;;6103592;23;20200;-72
2023/09/04 02:57:35;;;;;;;6.63;5.90;;;14.60;99.90;;;;;;6108375;23;20187;-72
2023/09/04 03:00:05;;;;;;;6.40;5.80;;;14.60;99.90;;;;;;6080291;23;20239;-72
2023/09/04 03:02:32;;;;;;;6.00;5.40;;;14.60;99.90;;;;;;6104870;23;20141;-71
2023/09/04 03:04:58;;;;;;;5.50;5.00;;;14.60;99.90;;;;;;6105338;23;20522;-73
2023/09/04 03:07:28;;;;;;;7.60;5.43;;;14.60;99.90;;;;;;6080812;23;20365;-72
2023/09/04 03:09:58;;;;;;;5.90;5.30;;;14.70;99.90;;;;;;6080032;23;20507;-72
2023/09/04 03:12:30;;;;;;;6.50;5.23;;;14.70;99.90;;;;;;6104715;23;20370;-75
2023/09/04 03:14:57;;;;;;;5.87;5.37;;;14.70;99.90;;;;;;6100570;23;20391;-72
2023/09/04 03:17:24;;;;;;;5.77;5.17;;;14.70;99.90;;;;;;6099686;23;20380;-71
2023/09/04 03:19:51;;;;;;;8.47;5.20;;;14.70;99.90;;;;;;6100646;23;20865;-71
2023/09/04 03:22:17;;;;;;;5.50;4.83;;;14.60;99.90;;;;;;6100855;23;20424;-71
2023/09/04 03:24:42;;;;;;;5.50;5.00;;;14.60;99.90;;;;;;6100550;23;20408;-71
2023/09/04 03:27:08;;;;;;;4.20;3.80;;;14.50;99.90;;;;;;6076337;23;20374;-70
2023/09/04 03:29:34;;;;;;;5.47;4.93;;;14.50;99.90;;;;;;6076703;23;20412;-71
2023/09/04 03:32:00;;;;;;;5.57;5.07;;;14.40;99.90;;;;;;6075810;23;20144;-72
2023/09/04 03:34:29;;;;;;;6.77;6.07;;;14.40;99.90;;;;;;6075467;23;20152;-71
2023/09/04 03:36:54;;;;;;;7.83;5.57;;;14.50;99.90;;;;;;6098219;23;20369;-71
2023/09/04 03:39:20;;;;;;;6.30;4.70;;;14.40;99.90;;;;;;6074674;23;20381;-71
2023/09/04 03:41:46;;;;;;;5.00;4.47;;;14.40;99.90;;;;;;6099526;23;20163;-70
2023/09/04 03:44:11;;;;;;;5.27;4.77;;;14.40;99.90;;;;;;6099974;23;20372;-72
2023/09/04 03:46:37;;;;;;;5.57;4.87;;;14.30;99.90;;;;;;6099492;23;20140;-70
2023/09/04 03:49:04;;;;;;;5.07;4.67;;;14.30;99.90;;;;;;6098678;23;20148;-72
2023/09/04 03:51:29;;;;;;;4.93;4.43;;;14.30;99.90;;;;;;6099196;23;20159;-70
2023/09/04 03:53:55;;;;;;;5.97;5.33;;;14.30;99.90;;;;;;6099109;23;20415;-72
2023/09/04 03:56:21;;;;;;;5.63;5.13;;;14.20;99.90;;;;;;6099995;23;20873;-71
2023/09/04 03:58:46;;;;;;;5.20;4.70;;;14.20;99.90;;;;;;6100412;23;20158;-71
2023/09/04 04:01:12;;;;;;;5.53;5.03;;;14.20;99.90;;;;;;6101569;23;20178;-72
2023/09/04 04:03:40;;;;;;;4.83;4.43;;;14.20;99.90;;;;;;6107208;23;20247;-73
2023/09/04 04:06:15;;;;;;;5.57;5.00;;;14.20;99.90;;;;;;6086958;23;20271;-71
2023/09/04 04:08:41;;;;;;;6.83;5.43;;;14.20;99.90;;;;;;6102912;23;20394;-72
2023/09/04 04:11:07;;;;;;;6.20;5.53;;;14.20;99.90;;;;;;6105281;23;20391;-72
2023/09/04 04:13:33;;;;;;;6.27;5.67;;;14.20;99.90;;;;;;6105754;23;20558;-72
2023/09/04 04:16:00;;;;;;;5.23;4.73;;;14.20;99.90;;;;;;6107198;23;20355;-71
2023/09/04 04:18:27;;;;;;;5.97;4.47;;;14.20;99.90;;;;;;6081149;23;20183;-76
2023/09/04 04:20:53;;;;;;;6.30;5.60;;;14.20;99.90;;;;;;6084185;23;20396;-72
2023/09/04 04:23:19;;;;;;;6.53;5.40;;;14.20;99.90;;;;;;6103824;23;20470;-73
2023/09/04 04:25:47;;;;;;;7.20;5.43;;;14.10;99.90;;;;;;6080128;23;20257;-72
2023/09/04 04:28:13;;;;;;;7.50;6.10;;;14.10;99.90;;;;;;6079824;23;20393;-71
2023/09/04 04:30:38;;;;;;;5.47;4.97;;;14.10;99.90;;;;;;6106754;23;20395;-73
2023/09/04 04:33:04;;;;;;;7.30;5.43;;;14.10;99.90;;;;;;6106894;23;20171;-73
2023/09/04 04:35:30;;;;;;;6.40;5.70;;;14.20;99.90;;;;;;6109361;23;20225;-71
2023/09/04 04:37:56;;;;;;;6.77;5.13;;;14.20;99.90;;;;;;6110156;23;20500;-72
2023/09/04 04:40:23;;;;;;;7.80;5.70;;;14.20;99.90;;;;;;6087193;23;20493;-71
2023/09/04 04:42:49;;;;;;;4.80;4.40;;;14.20;99.90;;;;;;6086679;23;20144;-72
2023/09/04 04:45:15;;;;;;;5.13;4.63;;;14.20;99.90;;;;;;6086771;23;20454;-73
2023/09/04 04:47:42;;;;;;;4.93;4.43;;;14.20;99.90;;;;;;6084345;23;20160;-73
2023/09/04 04:50:09;;;;;;;4.30;3.90;;;14.20;99.90;;;;;;6106631;23;20967;-72
2023/09/04 04:52:35;;;;;;;4.57;4.17;;;14.20;99.90;;;;;;6038507;23;20461;-72
2023/09/04 04:55:01;;;;;;;3.70;3.17;;;14.20;99.90;;;;;;6114930;23;20459;-76
2023/09/04 04:57:28;;;;;;;4.40;3.83;;;14.20;99.90;;;;;;6111155;23;20776;-74
2023/09/04 04:59:54;;;;;;;8.03;4.80;;;14.20;99.90;;;;;;6085566;23;20430;-72
2023/09/04 05:02:23;;;;;;;5.20;4.77;;;14.20;99.90;;;;;;6085015;23;20394;-72
2023/09/04 05:04:49;;;;;;;5.40;4.37;;;14.20;99.90;;;;;;6106905;23;20192;-74
2023/09/04 05:07:17;;;;;;;5.97;4.50;;;14.20;99.90;;;;;;6106913;23;20387;-72
2023/09/04 05:09:42;;;;;;;5.03;4.60;;;14.20;99.90;;;;;;6106302;23;20788;-72
2023/09/04 05:12:08;;;;;;;7.80;5.20;;;14.20;99.90;;;;;;6084438;23;20364;-72
2023/09/04 05:14:34;;;;;;;7.10;6.10;;;14.20;99.90;;;;;;6108896;23;20379;-72
2023/09/04 05:17:00;;;;;;;5.83;5.00;;;14.30;99.90;;;;;;6081727;23;20151;-72
2023/09/04 05:19:28;;;;;;;6.37;5.30;;;14.30;99.90;;;;;;6081339;23;20468;-73
2023/09/04 05:21:54;;;;;;;10.70;5.60;;;14.40;99.90;;;;;;6107851;23;20144;-73
2023/09/04 05:24:20;;;;;;;8.47;5.13;;;14.40;99.90;;;;;;6083833;23;20392;-72
2023/09/04 05:26:45;;;;;;;11.40;7.00;;;14.50;99.90;;;;;;6108006;23;20387;-73
2023/09/04 05:29:11;;;;;;;8.67;5.63;;;14.50;99.90;;;;;;6112053;23;20141;-74
2023/09/04 05:31:37;;;;;;;7.53;5.90;;;14.60;99.90;;;;;;6087189;23;20196;-76
2023/09/04 05:34:03;;;;;;;7.37;5.50;;;14.60;99.90;;;;;;6065665;23;20155;-74
2023/09/04 05:36:29;;;;;;;8.53;4.80;;;14.60;99.90;;;;;;6088448;23;20401;-74
2023/09/04 05:38:54;;;;;;;10.73;7.20;;;14.70;99.90;;;;;;6108773;23;20131;-73
2023/09/04 05:41:21;;;;;;;9.77;5.50;;;14.80;99.90;;;;;;6109306;23;20171;-73
2023/09/04 05:43:47;;;;;;;5.23;4.30;;;14.80;99.90;;;;;;6083082;23;20147;-75
2023/09/04 05:46:12;;;;;;;5.90;4.23;;;14.90;99.90;;;;;;6084468;23;20423;-75
2023/09/04 05:48:38;;;;;;;6.67;4.90;;;15.00;99.90;;;;;;6086175;23;20194;-74
2023/09/04 05:51:03;;;;;;;5.43;4.90;;;15.00;99.90;;;;;;6109583;23;20197;-74
2023/09/04 05:53:29;;;;;;;5.50;4.23;;;15.10;99.90;;;;;;6109390;23;20155;-74
2023/09/04 05:56:10;;;;;;;5.30;4.03;;;15.10;99.90;;;;;;6060758;23;20276;-73
2023/09/04 05:58:48;;;;;;;5.73;4.87;;;15.20;99.90;;;;;;6110104;23;20145;-73
2023/09/04 06:01:14;;;;;;;4.90;4.40;;;15.30;99.90;;;;;;6107968;23;20407;-73
2023/09/04 06:03:42;;;;;;;4.40;3.83;;;15.40;99.90;;;;;;6083183;23;20420;-74
2023/09/04 06:06:08;;;;;;;4.47;3.90;;;15.50;99.90;;;;;;6088102;23;20408;-74
2023/09/04 06:08:35;;;;;;;4.73;3.90;;;15.50;99.90;;;;;;6082404;23;20377;-74
2023/09/04 06:11:03;;;;;;;5.73;4.07;;;15.50;99.90;;;;;;6108959;23;20470;-75
2023/09/04 06:13:29;;;;;;;4.23;3.40;;;15.60;99.90;;;;;;6110375;23;20754;-74
2023/09/04 06:15:55;;;;;;;3.40;3.07;;;15.60;99.90;;;;;;6109100;23;20421;-73
2023/09/04 06:18:21;;;;;;;4.53;3.03;;;15.70;99.90;;;;;;6084054;23;20369;-73
2023/09/04 06:20:47;;;;;;;5.60;4.40;;;15.70;99.90;;;;;;6108478;23;20179;-75
2023/09/04 06:23:13;;;;;;;5.93;4.13;;;15.80;99.90;;;;;;6111306;23;20360;-76
2023/09/04 06:25:42;;;;;;;4.90;3.93;;;15.80;99.90;;;;;;6111345;23;20448;-77
2023/09/04 06:28:12;;;;;;;5.73;3.97;;;15.90;99.90;;;;;;6084375;23;20212;-75
2023/09/04 06:30:38;;;;;;;7.13;4.30;;;15.90;99.90;;;;;;6107452;23;20462;-74
2023/09/04 06:33:04;;;;;;;5.53;4.17;;;16.00;99.90;;;;;;6059583;23;20383;-76
2023/09/04 06:35:30;;;;;;;5.60;3.93;;;16.00;99.90;;;;;;6108228;23;20616;-73
2023/09/04 06:37:56;;;;;;;4.27;3.73;;;16.10;99.90;;;;;;6109095;23;20148;-74
2023/09/04 06:40:22;;;;;;;4.17;3.77;;;16.10;99.90;;;;;;6109518;23;20160;-74
2023/09/04 06:42:48;;;;;;;6.57;3.73;;;16.10;99.90;;;;;;6081633;23;20396;-75
2023/09/04 06:45:13;;;;;;;5.27;3.67;;;16.20;99.90;;;;;;6082572;23;20471;-77
2023/09/04 06:47:40;;;;;;;5.37;3.90;;;16.20;99.90;;;;;;6107252;23;20133;-73
2023/09/04 06:50:07;;;;;;;8.70;4.47;;;16.30;99.90;;;;;;6106231;23;20172;-74
2023/09/04 06:52:33;;;;;;;5.33;3.00;;;16.30;99.90;;;;;;6109624;23;20365;-72
2023/09/04 06:54:59;;;;;;;4.77;3.20;;;16.40;99.90;;;;;;6060010;23;20384;-76
2023/09/04 06:57:25;;;;;;;4.27;2.90;;;16.50;99.90;;;;;;6108977;23;20566;-73
2023/09/04 06:59:52;;;;;;;5.00;3.40;;;16.50;99.90;;;;;;6057454;23;20428;-74
2023/09/04 07:02:19;;;;;;;3.83;3.20;;;16.50;99.90;;;;;;6108970;23;20384;-76
2023/09/04 07:04:45;;;;;;;6.80;3.63;;;16.60;99.90;;;;;;6084211;23;20495;-74
2023/09/04 07:07:11;;;;;;;6.43;3.73;;;16.70;99.90;;;;;;6110658;23;20396;-75
2023/09/04 07:09:36;;;;;;;3.90;2.70;;;16.70;99.90;;;;;;6111020;23;20374;-75
2023/09/04 07:12:03;;;;;;;3.70;3.30;;;16.80;99.90;;;;;;6084897;23;20129;-73
2023/09/04 07:14:28;;;;;;;6.23;3.50;;;16.80;99.90;;;;;;6083450;23;20212;-76
2023/09/04 07:16:54;;;;;;;4.80;3.00;;;16.90;99.90;;;;;;6112118;23;20391;-74
2023/09/04 07:19:20;;;;;;;3.60;2.77;;;17.00;99.90;;;;;;6083052;23;20197;-74
2023/09/04 07:21:45;;;;;;;4.50;2.93;;;17.00;99.90;;;;;;6083579;23;20164;-74
2023/09/04 07:24:11;;;;;;;6.33;3.17;;;17.10;99.90;;;;;;6084978;23;20129;-74
2023/09/04 07:26:36;;;;;;;4.77;3.30;;;17.10;99.90;;;;;;6108037;23;20176;-74
2023/09/04 07:29:03;;;;;;;4.00;2.80;;;17.20;99.90;;;;;;6109412;23;20133;-75
2023/09/04 07:31:29;;;;;;;3.07;2.77;;;17.30;99.90;;;;;;6083929;23;20192;-74
2023/09/04 07:33:55;;;;;;;3.93;2.57;;;17.30;99.90;;;;;;6112586;23;20366;-76
2023/09/04 07:36:21;;;;;;;4.37;2.77;;;17.40;99.90;;;;;;6061879;23;20159;-75
2023/09/04 07:38:47;;;;;;;4.03;3.30;;;17.50;99.90;;;;;;6086224;23;20169;-76
2023/09/04 07:41:13;;;;;;;6.03;2.67;;;17.50;99.90;;;;;;6110210;23;20175;-76
2023/09/04 07:43:38;;;;;;;3.93;3.00;;;17.60;99.90;;;;;;6084150;23;20398;-76
2023/09/04 07:46:04;;;;;;;2.60;2.40;;;17.60;99.90;;;;;;6085550;23;20175;-76
2023/09/04 07:48:30;;;;;;;3.47;2.60;;;17.70;99.90;;;;;;6085545;23;20149;-73
2023/09/04 07:50:56;;;;;;;5.20;2.93;;;17.70;99.90;;;;;;6108899;23;20149;-75
2023/09/04 07:53:23;;;;;;;3.37;2.63;;;17.80;99.90;;;;;;6111107;23;20367;-75
2023/09/04 07:55:49;;;;;;;4.47;2.77;;;18.00;99.90;;;;;;6111720;23;20427;-75
2023/09/04 07:58:15;;;;;;;4.90;2.17;;;18.10;99.90;;;;;;6112252;23;20369;-74
2023/09/04 08:00:48;;;;;;;3.80;3.37;;;18.10;99.90;;;;;;6112384;23;20408;-75
2023/09/04 08:03:15;;;;;;;3.47;2.80;;;18.20;99.90;;;;;;6086432;23;20422;-77
2023/09/04 08:05:41;;;;;;;3.47;2.80;;;18.30;99.90;;;;;;6109403;23;21002;-74
2023/09/04 08:08:09;;;;;;;4.57;3.03;;;18.30;99.90;;;;;;6083775;23;20808;-76
2023/09/04 08:10:40;;;;;;;4.40;2.93;;;18.40;99.90;;;;;;6109270;23;20401;-74
2023/09/04 08:13:17;;;;;;;3.03;2.73;;;18.50;99.90;;;;;;6109480;23;20376;-76
2023/09/04 08:15:44;;;;;;;3.30;2.27;;;18.70;99.90;;;;;;6060443;23;20394;-76
2023/09/04 08:18:10;;;;;;;4.10;2.40;;;18.70;99.90;;;;;;6109880;23;20373;-75
2023/09/04 08:20:36;;;;;;;5.63;2.47;;;18.80;99.90;;;;;;6083152;23;20400;-75
2023/09/04 08:23:03;;;;;;;3.80;2.77;;;18.80;99.90;;;;;;6060051;23;20377;-74
2023/09/04 08:25:28;;;;;;;5.50;2.87;;;18.90;99.90;;;;;;6083318;23;20428;-73
2023/09/04 08:27:54;;;;;;;3.80;2.77;;;19.00;99.90;;;;;;6108509;23;20380;-74
2023/09/04 08:30:20;;;;;;;4.37;3.50;;;19.10;99.90;;;;;;6084536;23;20200;-74
2023/09/04 08:32:45;;;;;;;4.80;3.40;;;19.20;99.90;;;;;;6112755;23;20215;-76
2023/09/04 08:35:11;;;;;;;4.23;3.30;;;19.30;99.90;;;;;;6116340;23;20143;-75
2023/09/04 08:37:37;;;;;;;4.57;2.90;;;19.40;98.90;;;;;;6087686;23;20143;-75
2023/09/04 08:40:04;;;;;;;5.43;3.50;;;19.50;99.10;;;;;;6115425;23;20471;-76
2023/09/04 08:42:30;;;;;;;6.90;3.90;;;19.50;97.30;;;;;;6062409;23;20431;-76
2023/09/04 08:44:57;;;;;;;2.93;2.73;;;19.60;96.30;;;;;;6087038;23;20416;-76
2023/09/04 08:47:23;;;;;;;3.90;3.10;;;19.70;95.60;;;;;;6086317;23;20397;-75
2023/09/04 08:49:50;;;;;;;4.50;3.07;;;19.70;95.30;;;;;;6085036;23;20725;-76
2023/09/04 08:52:15;;;;;;;7.00;3.50;;;19.80;95.00;;;;;;6111585;23;20428;-76
2023/09/04 08:54:41;;;;;;;3.67;3.30;;;19.90;95.20;;;;;;6090783;23;20386;-77
2023/09/04 08:57:08;;;;;;;3.80;3.50;;;20.00;94.50;;;;;;6116255;23;20443;-77
2023/09/04 08:59:34;;;;;;;3.93;2.63;;;20.10;94.50;;;;;;6092478;23;20148;-73
2023/09/04 09:02:04;;;;;;;4.77;3.10;;;20.20;93.30;;;;;;6092877;23;20399;-74
2023/09/04 09:04:31;;;;;;;3.33;2.80;;;20.30;92.40;;;;;;6084870;23;20196;-75
2023/09/04 09:06:57;;;;;;;3.53;3.23;;;20.30;92.60;;;;;;6111007;23;20684;-77
2023/09/04 09:09:24;;;;;;;3.60;3.10;;;20.40;92.70;;;;;;6088160;23;20389;-78
2023/09/04 09:11:55;;;;;;;3.93;3.50;;;20.50;91.90;;;;;;6109987;23;20377;-75
2023/09/04 09:14:29;;;;;;;3.63;3.30;;;20.60;90.00;;;;;;6114400;23;20444;-77
2023/09/04 09:17:14;;;;;;;3.90;3.50;;;20.80;88.70;;;;;;6108370;23;20372;-74
2023/09/04 09:19:41;;;;;;;4.27;3.50;;;20.80;87.40;;;;;;6063637;23;20401;-78
2023/09/04 09:22:15;;;;;;;3.80;3.37;;;20.80;88.40;;;;;;6087667;23;20384;-75
2023/09/04 09:25:01;;;;;;;3.67;2.83;;;20.80;88.20;;;;;;6083645;23;20444;-76
2023/09/04 09:27:32;;;;;;;4.50;3.97;;;20.90;86.10;;;;;;6089691;23;20443;-75
2023/09/04 09:29:59;;;;;;;6.13;3.57;;;21.00;85.20;;;;;;6110263;23;20392;-74
2023/09/04 09:32:33;;;;;;;4.03;3.63;;;21.10;84.90;;;;;;6091536;23;20377;-76
2023/09/04 09:35:00;;;;;;;3.87;3.10;;;21.10;81.60;;;;;;6066503;23;20391;-78
2023/09/04 09:37:31;;;;;;;3.73;3.37;;;21.10;82.30;;;;;;6092115;23;20389;-75
2023/09/04 09:39:57;;;;;;;5.63;3.37;;;21.20;82.20;;;;;;6115126;23;20467;-77
2023/09/04 09:42:25;;;;;;;5.50;3.53;;;21.20;82.10;;;;;;6112289;23;20368;-77
2023/09/04 09:44:51;;;;;;;5.00;3.20;;;21.30;81.50;;;;;;6111721;23;20184;-75
2023/09/04 09:47:17;;;;;;;4.40;3.20;;;21.30;80.80;;;;;;6115121;23;20375;-77
2023/09/04 09:49:45;;;;;;;4.80;3.70;;;21.40;80.30;;;;;;6114799;23;20361;-76
2023/09/04 09:52:12;;;;;;;3.73;3.30;;;21.40;78.50;;;;;;6112440;23;20169;-74
2023/09/04 09:54:42;;;;;;;4.53;3.10;;;21.40;78.50;;;;;;6088634;23;20635;-77
2023/09/04 09:57:18;;;;;;;3.03;2.80;;;21.50;78.60;;;;;;6118366;23;20369;-75
2023/09/04 09:59:47;;;;;;;3.40;3.10;;;21.60;77.70;;;;;;6112969;23;20384;-76
2023/09/04 10:02:23;;;;;;;4.83;3.30;;;21.70;76.00;;;;;;6116680;23;20425;-78
2023/09/04 10:04:49;;;;;;;4.80;3.50;;;21.70;74.60;;;;;;6092353;23;20439;-78
2023/09/04 10:07:19;;;;;;;5.43;2.83;;;21.70;72.70;;;;;;6095012;23;20801;-78
2023/09/04 10:09:47;;;;;;;3.77;3.07;;;21.80;72.50;;;;;;6095760;23;20407;-77
2023/09/04 10:12:41;;;;;;;4.07;3.10;;;21.90;72.10;;;;;;6093201;23;20365;-77
2023/09/04 10:15:07;;;;;;;5.80;3.10;;;21.80;71.10;;;;;;6112422;23;20396;-76
2023/09/04 10:17:42;;;;;;;3.30;2.43;;;21.90;71.90;;;;;;6087462;23;20408;-76
2023/09/04 10:20:10;;;;;;;4.97;2.70;;;21.90;71.10;;;;;;6090868;23;20392;-77
2023/09/04 10:22:45;;;;;;;3.70;3.00;;;21.90;70.50;;;;;;6069197;23;20373;-75
2023/09/04 10:25:29;;;;;;;6.53;2.80;;;22.10;67.60;;;;;;6090599;23;20432;-78
2023/09/04 10:28:04;;;;;;;2.43;2.23;;;22.20;65.80;;;;;;6118375;23;20381;-78
2023/09/04 10:30:34;;;;;;;5.90;2.60;;;22.30;65.10;;;;;;6090266;23;20408;-77
2023/09/04 10:33:00;;;;;;;3.23;2.70;;;22.30;65.50;;;;;;6090838;23;20408;-78
2023/09/04 10:35:26;;;;;;;3.57;3.27;;;22.20;65.50;;;;;;6092256;23;20383;-78
2023/09/04 10:37:52;;;;;;;2.60;2.40;;;22.30;65.10;;;;;;6091962;23;20476;-76
2023/09/04 10:40:19;;;;;;;3.70;2.93;;;22.40;65.70;;;;;;6116337;23;20380;-77
2023/09/04 10:42:45;;;;;;;3.97;2.90;;;22.50;66.50;;;;;;6070620;23;20373;-78
2023/09/04 10:45:13;;;;;;;3.33;3.03;;;22.50;66.20;;;;;;6089698;23;20916;-75
2023/09/04 10:47:46;;;;;;;4.83;2.90;;;22.50;65.00;;;;;;6090790;23;20448;-78
2023/09/04 10:50:37;;;;;;;5.67;2.80;;;22.70;63.50;;;;;;6070576;23;20400;-78
2023/09/04 10:53:08;;;;;;;3.23;2.93;;;22.70;62.60;;;;;;6119800;23;20365;-78
2023/09/04 10:55:37;;;;;;;3.90;3.10;;;22.80;63.10;;;;;;6093567;23;20384;-78
2023/09/04 10:58:05;;;;;;;4.23;3.10;;;22.80;63.40;;;;;;6116852;23;20375;-76
2023/09/04 11:00:37;;;;;;;6.07;3.23;;;22.80;63.40;;;;;;6090855;23;20412;-78
2023/09/04 11:03:21;;;;;;;8.77;3.70;;;22.90;64.10;;;;;;6092502;23;20369;-78
2023/09/04 11:06:02;;;;;;;3.70;2.53;;;23.00;63.80;;;;;;6114530;23;20405;-77
2023/09/04 11:08:32;;;;;;;3.13;2.63;;;23.10;63.50;;;;;;6116555;23;20588;-77
2023/09/04 11:11:04;;;;;;;3.50;2.60;;;23.20;62.60;;;;;;6089986;23;20428;-76
2023/09/04 11:13:32;;;;;;;2.33;2.13;;;23.20;62.10;;;;;;6117851;23;20373;-76
2023/09/04 11:15:58;;;;;;;3.13;2.83;;;23.30;62.50;;;;;;6068763;23;20385;-77
2023/09/04 11:18:31;;;;;;;3.47;2.70;;;23.30;63.20;;;;;;6091916;23;20361;-78
2023/09/04 11:20:57;;;;;;;6.30;3.13;;;23.40;63.40;;;;;;6116034;23;20400;-76
2023/09/04 11:23:27;;;;;;;4.83;3.80;;;23.40;63.30;;;;;;6089833;23;20376;-77
2023/09/04 11:25:53;;;;;;;3.00;2.53;;;23.50;63.40;;;;;;6118289;23;20184;-78
2023/09/04 11:28:24;;;;;;;4.10;3.67;;;23.60;63.20;;;;;;6067197;23;20456;-75
2023/09/04 11:30:57;;;;;;;3.40;3.10;;;23.70;62.10;;;;;;6115251;23;20401;-79
2023/09/04 11:33:27;;;;;;;4.47;3.13;;;23.70;62.20;;;;;;6088591;23;20357;-78
2023/09/04 11:36:06;;;;;;;7.30;3.90;;;23.70;63.10;;;;;;6114683;23;20407;-78
2023/09/04 11:38:34;;;;;;;3.50;3.20;;;23.70;62.90;;;;;;6089044;23;20716;-78
2023/09/04 11:41:05;;;;;;;4.37;3.53;;;23.70;63.20;;;;;;6066326;23;20411;-76
2023/09/04 11:43:31;;;;;;;5.10;3.70;;;23.70;63.40;;;;;;6066700;23;20396;-77
2023/09/04 11:45:56;;;;;;;5.33;4.27;;;23.70;63.60;;;;;;6115263;23;20754;-76
2023/09/04 11:48:27;;;;;;;3.07;2.70;;;23.80;64.30;;;;;;6088976;23;20145;-77
2023/09/04 11:50:54;;;;;;;3.80;3.10;;;23.80;64.20;;;;;;6092550;23;20159;-79
2023/09/04 11:53:21;;;;;;;3.03;2.83;;;23.90;64.00;;;;;;6114349;23;20687;-77
2023/09/04 11:55:47;;;;;;;4.43;3.33;;;23.90;64.10;;;;;;6088490;23;20755;-78
2023/09/04 11:58:13;;;;;;;3.23;2.90;;;24.00;62.70;;;;;;6089880;23;20383;-79
2023/09/04 12:00:41;;;;;;;3.47;3.17;;;24.10;62.20;;;;;;6117351;23;20178;-78
2023/09/04 12:03:07;;;;;;;3.27;2.97;;;24.10;62.60;;;;;;6116303;23;20361;-77
2023/09/04 12:05:35;;;;;;;3.00;2.80;;;24.10;62.90;;;;;;6096420;23;20417;-79
2023/09/04 12:08:02;;;;;;;3.90;3.13;;;24.20;62.30;;;;;;6071075;23;20152;-78
2023/09/04 12:10:28;;;;;;;4.00;3.20;;;24.30;62.20;;;;;;6092075;23;20396;-77
2023/09/04 12:12:54;;;;;;;4.47;3.00;;;24.40;61.90;;;;;;6067099;23;20448;-79
2023/09/04 12:15:35;;;;;;;4.77;2.80;;;24.40;60.90;;;;;;6091958;23;20372;-77
2023/09/04 12:18:03;;;;;;;4.20;3.00;;;24.40;59.50;;;;;;6115023;23;20144;-75
2023/09/04 12:20:34;;;;;;;2.70;2.50;;;24.50;59.20;;;;;;6090904;23;20416;-76
2023/09/04 12:23:00;;;;;;;3.20;2.70;;;24.50;57.60;;;;;;6115988;23;20368;-77
2023/09/04 12:25:33;;;;;;;3.13;2.70;;;24.50;57.80;;;;;;6115572;23;20411;-77
2023/09/04 12:27:58;;;;;;;3.17;2.87;;;24.60;58.10;;;;;;6066409;23;20454;-77
2023/09/04 12:30:24;;;;;;;5.97;2.30;;;24.60;56.70;;;;;;6094099;23;20415;-78
2023/09/04 12:32:50;;;;;;;3.03;2.70;;;24.70;56.40;;;;;;6066469;23;20148;-78
2023/09/04 12:35:18;;;;;;;3.10;2.47;;;24.80;55.20;;;;;;6089856;23;20182;-76
2023/09/04 12:37:45;;;;;;;3.57;2.70;;;24.80;54.90;;;;;;6094298;23;20404;-76
2023/09/04 12:40:12;;;;;;;3.40;2.83;;;24.80;55.00;;;;;;6091514;23;20393;-78
2023/09/04 12:42:38;;;;;;;6.53;2.60;;;24.90;55.30;;;;;;6118367;23;20375;-78
2023/09/04 12:45:08;;;;;;;2.70;2.50;;;24.90;54.30;;;;;;6095170;23;20432;-79
2023/09/04 12:47:34;;;;;;;2.60;2.40;;;24.90;54.40;;;;;;6069331;23;20401;-77